createdAt,value
2022-12-18T00:01:23.575Z,10.65
2022-12-18T00:03:29.660Z,11.13
2022-12-18T00:05:34.776Z,10.77
2022-12-18T00:07:43.255Z,10.15
2022-12-18T00:09:49.144Z,11.23
2022-12-18T00:11:54.200Z,12.40
2022-12-18T00:14:02.285Z,11.57
2022-12-18T00:16:08.980Z,10.95
2022-12-18T00:18:18.951Z,11.25
2022-12-18T00:20:27.117Z,12.20
2022-12-18T00:22:32.149Z,10.98
2022-12-18T00:24:39.731Z,11.95
2022-12-18T00:26:44.693Z,11.13
2022-12-18T00:28:50.618Z,11.43
2022-12-18T00:31:02.948Z,12.45
2022-12-18T00:33:08.063Z,11.23
2022-12-18T00:35:13.304Z,11.32
2022-12-18T00:37:20.340Z,10.82
2022-12-18T00:39:29.801Z,12.68
2022-12-18T00:41:50.296Z,11.88
2022-12-18T00:43:55.553Z,11.13
2022-12-18T00:46:00.583Z,11.32
2022-12-18T00:48:06.727Z,11.32
2022-12-18T00:50:13.728Z,10.95
2022-12-18T00:52:19.961Z,12.25
2022-12-18T00:54:25.259Z,12.00
2022-12-18T00:56:30.622Z,11.45
2022-12-18T00:58:38.659Z,11.75
2022-12-18T01:00:44.005Z,11.13
2022-12-18T01:02:49.977Z,11.95
2022-12-18T01:04:56.380Z,10.07
2022-12-18T01:07:01.461Z,11.60
2022-12-18T01:09:06.932Z,12.43
2022-12-18T01:11:18.528Z,11.55
2022-12-18T01:13:23.844Z,11.15
2022-12-18T01:15:31.868Z,12.85
2022-12-18T01:17:37.993Z,10.45
2022-12-18T01:19:43.015Z,11.57
2022-12-18T01:21:49.005Z,10.32
2022-12-18T01:23:56.985Z,12.45
2022-12-18T01:26:07.494Z,10.75
2022-12-18T01:28:14.075Z,11.07
2022-12-18T01:30:19.944Z,11.18
2022-12-18T01:32:27.509Z,10.70
2022-12-18T01:34:32.558Z,11.50
2022-12-18T01:36:40.527Z,11.45
2022-12-18T01:38:45.733Z,10.10
2022-12-18T01:40:50.724Z,10.27
2022-12-18T01:42:57.497Z,9.77
2022-12-18T01:45:26.849Z,9.50
2022-12-18T01:47:41.590Z,9.52
2022-12-18T01:49:46.899Z,10.68
2022-12-18T01:51:51.938Z,9.27
2022-12-18T01:53:57.159Z,10.15
2022-12-18T01:56:03.733Z,9.20
2022-12-18T01:58:09.394Z,9.63
2022-12-18T02:00:20.540Z,9.63
2022-12-18T02:02:26.432Z,10.38
2022-12-18T02:04:34.193Z,10.63
2022-12-18T02:06:45.040Z,10.95
2022-12-18T02:09:06.032Z,11.10
2022-12-18T02:11:19.202Z,9.50
2022-12-18T02:13:35.929Z,9.98
2022-12-18T02:15:48.402Z,9.98
2022-12-18T02:18:00.739Z,10.43
2022-12-18T02:22:35.800Z,9.55
2022-12-18T02:25:02.459Z,11.05
2022-12-18T02:27:13.824Z,9.45
2022-12-18T02:29:28.423Z,10.65
2022-12-18T02:31:40.264Z,9.98
2022-12-18T02:33:47.762Z,10.70
2022-12-18T02:35:55.181Z,10.38
2022-12-18T02:38:01.200Z,9.52
2022-12-18T02:40:12.085Z,9.90
2022-12-18T02:42:21.315Z,10.55
2022-12-18T02:44:27.391Z,11.43
2022-12-18T02:46:41.597Z,10.52
2022-12-18T02:48:52.913Z,10.13
2022-12-18T02:51:07.743Z,10.13
2022-12-18T02:53:21.272Z,10.27
2022-12-18T02:55:42.418Z,10.50
2022-12-18T02:57:57.748Z,9.88
2022-12-18T03:00:13.895Z,10.63
2022-12-18T03:02:27.437Z,9.25
2022-12-18T03:04:41.983Z,9.60
2022-12-18T03:06:52.936Z,10.35
2022-12-18T03:09:04.728Z,11.25
2022-12-18T03:11:14.066Z,8.77
2022-12-18T03:13:33.736Z,10.00
2022-12-18T03:15:43.707Z,9.23
2022-12-18T03:18:00.009Z,10.18
2022-12-18T03:20:13.583Z,9.75
2022-12-18T03:22:21.696Z,9.63
2022-12-18T03:24:34.242Z,9.30
2022-12-18T03:26:43.896Z,8.40
2022-12-18T03:28:59.983Z,8.82
2022-12-18T03:31:09.212Z,9.77
2022-12-18T03:33:20.669Z,8.27
2022-12-18T03:35:35.049Z,8.38
2022-12-18T03:37:40.701Z,8.88
2022-12-18T03:39:46.868Z,7.88
2022-12-18T03:42:00.384Z,7.72
2022-12-18T03:44:27.281Z,8.65
2022-12-18T03:46:44.451Z,7.25
2022-12-18T03:48:56.151Z,9.02
2022-12-18T03:51:05.640Z,8.93
2022-12-18T03:53:27.067Z,8.32
2022-12-18T03:55:37.121Z,7.95
2022-12-18T04:00:00.587Z,7.50
2022-12-18T04:02:20.974Z,7.75
2022-12-18T04:04:28.410Z,8.95
2022-12-18T04:06:35.540Z,8.52
2022-12-18T04:08:41.143Z,8.20
2022-12-18T04:10:49.528Z,8.88
2022-12-18T04:12:54.763Z,8.93
2022-12-18T04:15:02.816Z,9.05
2022-12-18T04:17:08.419Z,8.10
2022-12-18T04:19:13.472Z,7.22
2022-12-18T04:21:20.892Z,8.00
2022-12-18T04:23:28.207Z,7.25
2022-12-18T04:25:36.199Z,7.40
2022-12-18T04:27:45.801Z,7.30
2022-12-18T04:29:51.754Z,7.75
2022-12-18T04:32:00.464Z,7.43
2022-12-18T04:34:08.454Z,7.22
2022-12-18T04:36:19.624Z,6.93
2022-12-18T04:38:26.194Z,7.55
2022-12-18T04:40:41.691Z,8.50
2022-12-18T04:42:53.924Z,9.18
2022-12-18T04:44:59.584Z,9.50
2022-12-18T04:47:08.498Z,9.18
2022-12-18T04:49:14.121Z,10.25
2022-12-18T04:51:25.959Z,8.93
2022-12-18T04:53:32.355Z,10.32
2022-12-18T04:55:37.657Z,9.73
2022-12-18T04:57:43.046Z,11.52
2022-12-18T04:59:48.404Z,9.05
2022-12-18T05:01:53.401Z,10.73
2022-12-18T05:04:01.647Z,10.43
2022-12-18T05:06:08.051Z,10.13
2022-12-18T05:08:13.415Z,10.75
2022-12-18T05:10:18.420Z,11.10
2022-12-18T05:12:29.242Z,9.98
2022-12-18T05:14:34.188Z,10.55
2022-12-18T05:16:39.220Z,9.13
2022-12-18T05:18:44.753Z,10.95
2022-12-18T05:20:53.797Z,10.00
2022-12-18T05:22:59.580Z,9.20
2022-12-18T05:25:04.606Z,7.82
2022-12-18T05:27:09.503Z,9.73
2022-12-18T05:29:15.362Z,10.45
2022-12-18T05:31:20.806Z,8.55
2022-12-18T05:33:28.293Z,10.05
2022-12-18T05:35:33.574Z,8.25
2022-12-18T05:37:43.502Z,9.27
2022-12-18T05:39:48.733Z,7.97
2022-12-18T05:41:53.692Z,8.27
2022-12-18T05:43:58.777Z,8.30
2022-12-18T05:46:08.593Z,7.35
2022-12-18T05:48:17.320Z,8.52
2022-12-18T05:50:22.276Z,8.05
2022-12-18T05:52:27.564Z,7.45
2022-12-18T05:54:35.280Z,7.18
2022-12-18T05:56:44.167Z,7.97
2022-12-18T05:58:56.568Z,7.65
2022-12-18T06:01:02.045Z,7.88
2022-12-18T06:03:07.133Z,8.57
2022-12-18T06:05:12.343Z,8.85
2022-12-18T06:07:17.250Z,10.43
2022-12-18T06:09:22.161Z,8.43
2022-12-18T06:11:30.837Z,10.27
2022-12-18T06:13:36.228Z,9.35
2022-12-18T06:15:41.629Z,9.30
2022-12-18T06:17:46.992Z,10.77
2022-12-18T06:19:51.911Z,10.55
2022-12-18T06:21:58.791Z,9.10
2022-12-18T06:24:04.638Z,9.38
2022-12-18T06:26:11.618Z,9.32
2022-12-18T06:28:19.269Z,9.73
2022-12-18T06:30:24.689Z,9.95
2022-12-18T06:32:30.121Z,9.52
2022-12-18T06:34:36.357Z,7.60
2022-12-18T06:36:41.840Z,7.25
2022-12-18T06:38:48.156Z,6.63
2022-12-18T06:40:53.044Z,6.65
2022-12-18T06:42:58.675Z,6.50
2022-12-18T06:45:07.564Z,8.68
2022-12-18T06:47:12.696Z,7.65
2022-12-18T06:49:17.899Z,8.05
2022-12-18T06:51:25.134Z,7.25
2022-12-18T06:53:30.524Z,7.72
2022-12-18T06:55:36.161Z,8.73
2022-12-18T06:57:41.796Z,8.43
2022-12-18T06:59:46.704Z,9.02
2022-12-18T07:01:54.687Z,9.00
2022-12-18T07:04:01.692Z,9.50
2022-12-18T07:06:07.270Z,8.82
2022-12-18T07:08:12.731Z,8.73
2022-12-18T07:10:17.693Z,8.05
2022-12-18T07:12:22.797Z,8.25
2022-12-18T07:14:28.110Z,10.00
2022-12-18T07:16:33.579Z,8.68
2022-12-18T07:18:41.145Z,8.55
2022-12-18T07:20:46.167Z,9.20
2022-12-18T07:22:56.248Z,9.23
2022-12-18T07:25:01.431Z,9.45
2022-12-18T07:27:06.578Z,9.70
2022-12-18T07:29:13.321Z,9.50
2022-12-18T07:31:23.291Z,10.02
2022-12-18T07:33:28.581Z,8.75
2022-12-18T07:35:37.110Z,9.90
2022-12-18T07:37:42.327Z,9.98
2022-12-18T07:39:47.903Z,11.65
2022-12-18T07:42:07.647Z,12.07
2022-12-18T07:44:13.941Z,11.30
2022-12-18T07:46:20.320Z,12.88
2022-12-18T07:48:25.601Z,15.35
2022-12-18T07:50:30.500Z,15.35
2022-12-18T07:52:38.016Z,13.80
2022-12-18T07:54:43.531Z,14.15
2022-12-18T07:56:48.502Z,13.25
2022-12-18T07:58:53.929Z,13.77
2022-12-18T08:01:07.054Z,12.23
2022-12-18T08:03:14.411Z,13.13
2022-12-18T08:05:19.839Z,14.85
2022-12-18T08:07:24.785Z,15.75
2022-12-18T08:09:32.279Z,14.52
2022-12-18T08:11:37.230Z,15.27
2022-12-18T08:13:42.466Z,13.27
2022-12-18T08:15:47.614Z,14.05
2022-12-18T08:17:52.590Z,13.60
2022-12-18T08:19:57.519Z,14.90
2022-12-18T08:22:02.906Z,13.45
2022-12-18T08:24:09.173Z,14.02
2022-12-18T08:26:17.595Z,14.60
2022-12-18T08:28:23.048Z,13.80
2022-12-18T08:30:28.102Z,13.65
2022-12-18T08:32:34.393Z,14.60
2022-12-18T08:34:39.719Z,15.45
2022-12-18T08:36:44.694Z,17.35
2022-12-18T08:38:50.267Z,17.70
2022-12-18T08:41:03.022Z,16.88
2022-12-18T08:43:25.407Z,17.83
2022-12-18T08:45:31.625Z,17.10
2022-12-18T08:47:36.564Z,17.20
2022-12-18T08:49:41.700Z,16.75
2022-12-18T08:51:47.116Z,17.75
2022-12-18T08:53:52.366Z,17.35
2022-12-18T08:55:57.537Z,17.92
2022-12-18T08:58:02.482Z,17.25
2022-12-18T09:00:14.476Z,18.42
2022-12-18T09:02:20.341Z,18.52
2022-12-18T09:04:25.463Z,16.50
2022-12-18T09:06:31.015Z,16.52
2022-12-18T09:08:39.635Z,20.25
2022-12-18T09:10:50.551Z,18.63
2022-12-18T09:12:57.136Z,17.85
2022-12-18T09:15:02.796Z,15.65
2022-12-18T09:17:10.591Z,15.93
2022-12-18T09:19:15.785Z,15.57
2022-12-18T09:21:24.439Z,17.95
2022-12-18T09:23:29.377Z,20.45
2022-12-18T09:25:36.811Z,18.60
2022-12-18T09:27:41.739Z,20.08
2022-12-18T09:29:46.821Z,19.92
2022-12-18T09:31:52.700Z,19.95
2022-12-18T09:34:01.564Z,22.48
2022-12-18T09:36:08.773Z,25.85
2022-12-18T09:38:17.762Z,22.65
2022-12-18T09:40:27.256Z,20.35
2022-12-18T09:42:32.951Z,21.77
2022-12-18T09:44:45.907Z,20.27
2022-12-18T09:46:58.836Z,20.40
2022-12-18T09:49:14.008Z,19.63
2022-12-18T09:51:22.488Z,18.60
2022-12-18T09:53:34.346Z,21.38
2022-12-18T09:55:43.938Z,17.15
2022-12-18T09:57:59.514Z,21.33
2022-12-18T10:00:17.257Z,21.02
2022-12-18T10:02:25.326Z,22.13
2022-12-18T10:04:35.700Z,20.13
2022-12-18T10:06:52.449Z,38.42
2022-12-18T10:09:07.632Z,31.35
2022-12-18T10:11:33.680Z,29.63
2022-12-18T10:13:44.992Z,27.42
2022-12-18T10:16:05.287Z,24.40
2022-12-18T10:18:27.280Z,22.30
2022-12-18T10:20:45.387Z,21.75
2022-12-18T10:23:01.696Z,23.25
2022-12-18T10:25:17.764Z,22.60
2022-12-18T10:27:28.605Z,21.40
2022-12-18T10:29:33.700Z,22.17
2022-12-18T10:31:38.649Z,24.63
2022-12-18T10:33:44.534Z,22.77
2022-12-18T10:35:54.501Z,21.83
2022-12-18T10:38:26.662Z,21.77
2022-12-18T10:40:31.768Z,20.92
2022-12-18T10:42:36.872Z,20.73
2022-12-18T10:44:41.792Z,21.13
2022-12-18T10:46:47.754Z,21.48
2022-12-18T10:48:58.147Z,21.33
2022-12-18T10:51:13.072Z,20.95
2022-12-18T10:53:25.402Z,22.00
2022-12-18T10:55:36.763Z,21.85
2022-12-18T10:57:44.055Z,21.42
2022-12-18T10:59:58.375Z,22.77
2022-12-18T11:02:03.792Z,22.08
2022-12-18T11:04:13.206Z,22.52
2022-12-18T11:06:25.706Z,20.95
2022-12-18T11:08:30.626Z,21.02
2022-12-18T11:10:37.743Z,22.55
2022-12-18T11:12:43.466Z,20.63
2022-12-18T11:14:52.249Z,21.73
2022-12-18T11:19:35.510Z,20.67
2022-12-18T11:21:46.983Z,21.17
2022-12-18T11:23:56.021Z,21.42
2022-12-18T11:26:04.404Z,21.27
2022-12-18T11:28:39.592Z,21.75
2022-12-18T11:30:44.770Z,20.70
2022-12-18T11:32:52.638Z,21.15
2022-12-18T11:35:06.762Z,20.73
2022-12-18T11:37:20.140Z,21.48
2022-12-18T11:39:34.983Z,22.02
2022-12-18T11:42:04.203Z,22.20
2022-12-18T11:44:12.780Z,21.88
2022-12-18T11:46:22.920Z,22.00
2022-12-18T11:48:33.555Z,22.95
2022-12-18T11:50:50.425Z,23.17
2022-12-18T11:53:02.813Z,23.15
2022-12-18T11:55:17.763Z,22.55
2022-12-18T11:57:38.168Z,23.92
2022-12-18T11:59:57.141Z,22.48
2022-12-18T12:02:29.011Z,22.95
2022-12-18T12:05:04.632Z,21.98
2022-12-18T12:07:27.746Z,24.67
2022-12-18T12:09:44.777Z,22.75
2022-12-18T12:12:02.359Z,24.05
2022-12-18T12:14:28.663Z,22.42
2022-12-18T12:16:41.239Z,24.42
2022-12-18T12:19:03.859Z,24.65
2022-12-18T12:21:16.104Z,24.85
2022-12-18T12:23:32.444Z,26.02
2022-12-18T12:25:45.941Z,24.38
2022-12-18T12:28:04.551Z,25.45
2022-12-18T12:30:13.110Z,25.48
2022-12-18T12:32:37.975Z,23.77
2022-12-18T12:35:00.951Z,24.83
2022-12-18T12:37:27.052Z,23.75
2022-12-18T12:39:38.085Z,23.52
2022-12-18T12:41:59.956Z,24.00
2022-12-18T12:44:10.728Z,24.75
2022-12-18T12:46:19.984Z,25.92
2022-12-18T12:48:40.082Z,25.35
2022-12-18T12:50:45.747Z,24.52
2022-12-18T12:52:55.453Z,23.67
2022-12-18T12:55:02.122Z,24.25
2022-12-18T12:57:15.907Z,24.08
2022-12-18T12:59:35.077Z,25.10
2022-12-18T13:01:50.963Z,25.30
2022-12-18T13:04:07.860Z,24.38
2022-12-18T13:06:21.816Z,24.15
2022-12-18T13:08:30.891Z,26.55
2022-12-18T13:10:40.861Z,27.10
2022-12-18T13:12:57.745Z,24.13
2022-12-18T13:15:24.318Z,26.38
2022-12-18T13:17:34.595Z,24.35
2022-12-18T13:19:39.732Z,25.70
2022-12-18T13:21:45.281Z,26.58
2022-12-18T13:23:51.099Z,26.70
2022-12-18T13:25:57.819Z,26.38
2022-12-18T13:28:13.697Z,27.35
2022-12-18T13:30:49.574Z,26.40
2022-12-18T13:34:24.563Z,24.88
2022-12-18T13:36:34.447Z,25.50
2022-12-18T13:38:43.104Z,24.17
2022-12-18T13:41:01.051Z,24.05
2022-12-18T13:43:40.536Z,25.30
2022-12-18T13:45:51.445Z,27.73
2022-12-18T13:47:57.155Z,25.92
2022-12-18T13:50:03.274Z,24.98
2022-12-18T13:52:22.015Z,26.23
2022-12-18T13:54:34.533Z,27.48
2022-12-18T13:56:48.645Z,26.85
2022-12-18T13:59:18.549Z,28.08
2022-12-18T14:01:27.228Z,28.88
2022-12-18T14:03:34.292Z,28.00
2022-12-18T14:05:44.348Z,25.70
2022-12-18T14:07:50.334Z,27.60
2022-12-18T14:12:43.962Z,27.98
2022-12-18T14:14:55.632Z,28.15
2022-12-18T14:17:02.749Z,28.15
2022-12-18T14:19:17.884Z,27.85
2022-12-18T14:23:40.118Z,28.05
2022-12-18T14:25:50.714Z,28.17
2022-12-18T14:28:06.486Z,27.45
2022-12-18T14:30:34.080Z,28.23
2022-12-18T14:32:40.323Z,29.63
2022-12-18T14:34:45.342Z,29.52
2022-12-18T14:36:57.198Z,27.52
2022-12-18T14:39:03.213Z,29.80
2022-12-18T14:41:13.660Z,32.80
2022-12-18T14:43:18.717Z,31.27
2022-12-18T14:45:44.880Z,29.63
2022-12-18T14:47:50.010Z,27.90
2022-12-18T14:49:55.068Z,28.95
2022-12-18T14:52:05.919Z,28.75
2022-12-18T14:54:21.260Z,29.65
2022-12-18T14:56:29.541Z,27.67
2022-12-18T14:58:34.647Z,29.85
2022-12-18T15:00:46.232Z,27.90
2022-12-18T15:02:56.248Z,31.10
2022-12-18T15:05:12.943Z,27.83
2022-12-18T15:07:20.819Z,30.05
2022-12-18T15:09:28.852Z,29.15
2022-12-18T15:11:47.173Z,28.75
2022-12-18T15:13:52.255Z,27.40
2022-12-18T15:16:02.403Z,28.75
2022-12-18T15:18:14.952Z,29.20
2022-12-18T15:20:19.955Z,28.58
2022-12-18T15:22:30.812Z,29.00
2022-12-18T15:24:36.629Z,33.45
2022-12-18T15:26:42.293Z,32.03
2022-12-18T15:28:51.301Z,29.83
2022-12-18T15:31:23.582Z,30.92
2022-12-18T15:33:33.481Z,29.15
2022-12-18T15:35:42.411Z,29.75
2022-12-18T15:37:50.813Z,32.67
2022-12-18T15:39:55.796Z,31.95
2022-12-18T15:42:13.311Z,31.27
2022-12-18T15:44:28.365Z,32.08
2022-12-18T15:46:35.948Z,33.67
2022-12-18T15:48:44.763Z,32.30
2022-12-18T15:50:49.913Z,32.25
2022-12-18T15:52:58.530Z,45.78
2022-12-18T15:55:16.065Z,41.28
2022-12-18T15:57:27.562Z,37.30
2022-12-18T15:59:32.589Z,33.90
2022-12-18T16:01:42.655Z,31.80
2022-12-18T16:03:48.145Z,38.97
2022-12-18T16:05:54.015Z,33.83
2022-12-18T16:08:00.334Z,34.42
2022-12-18T16:10:05.807Z,33.47
2022-12-18T16:12:18.575Z,33.03
2022-12-18T16:14:27.608Z,31.98
2022-12-18T16:16:32.623Z,33.63
2022-12-18T16:18:40.638Z,37.38
2022-12-18T16:20:46.192Z,34.55
2022-12-18T16:22:53.160Z,38.17
2022-12-18T16:24:59.826Z,33.40
2022-12-18T16:27:05.386Z,49.28
2022-12-18T16:29:11.007Z,34.55
2022-12-18T16:31:17.595Z,29.77
2022-12-18T16:33:22.948Z,31.70
2022-12-18T16:35:30.977Z,32.80
2022-12-18T16:37:36.000Z,33.80
2022-12-18T16:39:42.363Z,33.72
2022-12-18T16:41:48.443Z,30.63
2022-12-18T16:43:55.123Z,32.92
2022-12-18T16:46:02.830Z,28.98
2022-12-18T16:48:08.891Z,30.88
2022-12-18T16:50:14.975Z,30.63
2022-12-18T16:52:23.497Z,31.88
2022-12-18T16:54:30.455Z,29.33
2022-12-18T16:56:36.127Z,31.08
2022-12-18T16:58:41.145Z,31.88
2022-12-18T17:00:48.030Z,29.88
2022-12-18T17:02:53.184Z,32.58
2022-12-18T17:05:00.020Z,28.67
2022-12-18T17:07:05.064Z,20.80
2022-12-18T17:09:17.533Z,20.20
2022-12-18T17:11:22.612Z,19.17
2022-12-18T17:13:30.291Z,18.67
2022-12-18T17:15:38.879Z,20.58
2022-12-18T17:17:44.023Z,18.88
2022-12-18T17:19:49.333Z,21.45
2022-12-18T17:21:55.844Z,17.80
2022-12-18T17:24:03.713Z,20.13
2022-12-18T17:26:12.029Z,18.90
2022-12-18T17:28:16.996Z,18.92
2022-12-18T17:30:22.451Z,18.17
2022-12-18T17:32:27.551Z,20.13
2022-12-18T17:34:32.536Z,18.70
2022-12-18T17:36:39.206Z,17.15
2022-12-18T17:38:44.999Z,19.92
2022-12-18T17:40:49.944Z,17.20
2022-12-18T17:42:58.744Z,18.58
2022-12-18T17:45:03.724Z,19.42
2022-12-18T17:47:12.030Z,15.85
2022-12-18T17:49:17.299Z,16.63
2022-12-18T17:51:23.024Z,18.05
2022-12-18T17:53:27.980Z,16.27
2022-12-18T17:55:33.266Z,16.00
2022-12-18T17:57:38.278Z,18.10
2022-12-18T17:59:45.974Z,16.65
2022-12-18T18:01:51.260Z,16.52
2022-12-18T18:04:00.531Z,16.65
2022-12-18T18:06:05.753Z,17.80
2022-12-18T18:08:10.776Z,17.75
2022-12-18T18:10:15.902Z,16.83
2022-12-18T18:12:33.357Z,16.25
2022-12-18T18:14:38.747Z,16.35
2022-12-18T18:16:49.516Z,19.15
2022-12-18T18:18:54.621Z,18.45
2022-12-18T18:20:59.899Z,17.05
2022-12-18T18:23:05.795Z,16.95
2022-12-18T18:25:12.759Z,16.80
2022-12-18T18:27:18.986Z,17.70
2022-12-18T18:29:30.323Z,16.92
2022-12-18T18:31:40.854Z,17.90
2022-12-18T18:33:49.791Z,17.05
2022-12-18T18:35:54.997Z,15.90
2022-12-18T18:38:00.082Z,15.07
2022-12-18T18:40:05.315Z,16.08
2022-12-18T18:42:10.856Z,16.13
2022-12-18T18:44:15.880Z,16.90
2022-12-18T18:46:20.935Z,15.90
2022-12-18T18:48:27.343Z,16.55
2022-12-18T18:50:38.046Z,17.33
2022-12-18T18:52:43.832Z,16.70
2022-12-18T18:55:11.646Z,17.52
2022-12-18T18:57:20.892Z,16.98
2022-12-18T18:59:31.517Z,16.60
2022-12-18T19:01:37.273Z,16.30
2022-12-18T19:03:43.903Z,17.27
2022-12-18T19:05:59.829Z,17.00
2022-12-18T19:08:05.106Z,18.42
2022-12-18T19:10:12.063Z,18.23
2022-12-18T19:12:38.252Z,17.23
2022-12-18T19:14:45.618Z,18.40
2022-12-18T19:16:50.735Z,17.20
2022-12-18T19:19:01.559Z,18.20
2022-12-18T19:21:10.265Z,18.20
2022-12-18T19:23:15.674Z,17.60
2022-12-18T19:25:20.947Z,18.23
2022-12-18T19:27:25.941Z,18.05
2022-12-18T19:29:31.066Z,18.85
2022-12-18T19:31:37.122Z,19.92
2022-12-18T19:33:46.175Z,18.73
2022-12-18T19:35:51.488Z,18.77
2022-12-18T19:37:59.585Z,20.50
2022-12-18T19:40:06.087Z,17.60
2022-12-18T19:44:30.618Z,17.08
2022-12-18T19:46:36.207Z,18.02
2022-12-18T19:48:47.030Z,18.02
2022-12-18T19:50:52.016Z,19.45
2022-12-18T19:52:59.699Z,17.00
2022-12-18T19:55:05.126Z,18.55
2022-12-18T19:57:11.637Z,16.55
2022-12-18T19:59:19.029Z,18.23
2022-12-18T20:01:26.896Z,18.35
2022-12-18T20:03:33.013Z,17.08
2022-12-18T20:05:38.825Z,17.95
2022-12-18T20:07:44.251Z,19.02
2022-12-18T20:09:59.608Z,17.33
2022-12-18T20:12:10.303Z,18.30
2022-12-18T20:14:19.620Z,17.60
2022-12-18T20:16:28.489Z,17.67
2022-12-18T20:18:34.984Z,17.95
2022-12-18T20:20:40.741Z,18.17
2022-12-18T20:22:45.828Z,17.75
2022-12-18T20:24:53.373Z,18.20
2022-12-18T20:26:59.311Z,17.25
2022-12-18T20:29:04.306Z,17.25
2022-12-18T20:31:13.259Z,17.77
2022-12-18T20:33:19.860Z,17.38
2022-12-18T20:35:28.555Z,18.30
2022-12-18T20:37:35.009Z,17.70
2022-12-18T20:39:42.592Z,17.67
2022-12-18T20:41:51.036Z,17.13
2022-12-18T20:43:56.079Z,16.38
2022-12-18T20:46:05.541Z,17.50
2022-12-18T20:48:11.233Z,15.93
2022-12-18T20:50:16.251Z,17.50
2022-12-18T20:52:22.414Z,17.60
2022-12-18T20:54:30.413Z,17.48
2022-12-18T20:56:35.447Z,17.67
2022-12-18T20:58:43.433Z,18.02
2022-12-18T21:00:48.465Z,16.40
2022-12-18T21:02:53.605Z,16.92
2022-12-18T21:04:58.924Z,15.95
2022-12-18T21:07:03.902Z,18.23
2022-12-18T21:09:09.437Z,17.10
2022-12-18T21:11:40.161Z,18.23
2022-12-18T21:13:47.745Z,17.10
2022-12-18T21:15:55.621Z,18.63
2022-12-18T21:18:00.597Z,15.48
2022-12-18T21:20:05.913Z,17.45
2022-12-18T21:22:11.168Z,16.98
2022-12-18T21:24:16.636Z,17.85
2022-12-18T21:26:24.409Z,17.38
2022-12-18T21:28:29.481Z,18.85
2022-12-18T21:30:37.160Z,18.00
2022-12-18T21:32:42.168Z,19.80
2022-12-18T21:34:48.357Z,19.63
2022-12-18T21:36:53.814Z,19.52
2022-12-18T21:38:59.721Z,18.67
2022-12-18T21:41:10.104Z,18.90
2022-12-18T21:43:28.346Z,18.20
2022-12-18T21:45:35.926Z,17.20
2022-12-18T21:47:40.927Z,17.17
2022-12-18T21:49:46.027Z,16.88
2022-12-18T21:51:52.047Z,17.48
2022-12-18T21:53:57.062Z,18.48
2022-12-18T21:56:03.020Z,17.80
2022-12-18T21:58:08.096Z,16.23
2022-12-18T22:00:18.438Z,16.67
2022-12-18T22:02:27.238Z,18.00
2022-12-18T22:04:32.635Z,16.88
2022-12-18T22:06:38.183Z,17.90
2022-12-18T22:08:43.812Z,16.77
2022-12-18T22:10:49.483Z,17.92
2022-12-18T22:12:55.025Z,19.38
2022-12-18T22:15:00.815Z,17.60
2022-12-18T22:17:05.848Z,18.48
2022-12-18T22:19:15.420Z,18.30
2022-12-18T22:21:29.802Z,19.38
2022-12-18T22:23:35.299Z,17.52
2022-12-18T22:25:40.630Z,19.48
2022-12-18T22:28:06.278Z,19.10
2022-12-18T22:30:14.806Z,19.08
2022-12-18T22:32:30.879Z,20.13
2022-12-18T22:34:39.631Z,20.23
2022-12-18T22:36:47.396Z,19.92
2022-12-18T22:38:52.370Z,19.25
2022-12-18T22:40:59.266Z,19.85
2022-12-18T22:43:04.404Z,18.67
2022-12-18T22:45:11.226Z,20.17
2022-12-18T22:47:16.745Z,18.27
2022-12-18T22:49:24.346Z,19.13
2022-12-18T22:51:32.113Z,19.85
2022-12-18T22:53:37.153Z,18.85
2022-12-18T22:55:42.475Z,19.70
2022-12-18T22:57:49.110Z,20.85
2022-12-18T22:59:55.361Z,20.20
2022-12-18T23:02:00.855Z,19.88
2022-12-18T23:04:06.064Z,19.98
2022-12-18T23:06:12.882Z,19.38
2022-12-18T23:08:21.199Z,20.48
2022-12-18T23:10:26.460Z,19.02
2022-12-18T23:12:31.470Z,19.40
2022-12-18T23:14:38.380Z,19.75
2022-12-18T23:16:43.769Z,20.52
2022-12-18T23:18:56.075Z,19.48
2022-12-18T23:21:01.104Z,18.67
2022-12-18T23:23:06.433Z,20.25
2022-12-18T23:25:14.233Z,19.23
2022-12-18T23:27:19.523Z,20.95
2022-12-18T23:29:24.520Z,20.67
2022-12-18T23:31:32.473Z,20.45
2022-12-18T23:33:37.633Z,19.23
2022-12-18T23:35:42.673Z,19.55
2022-12-18T23:37:58.735Z,19.42
2022-12-18T23:40:05.220Z,18.42
2022-12-18T23:42:12.931Z,18.42
2022-12-18T23:44:19.761Z,19.08
2022-12-18T23:46:27.654Z,19.17
2022-12-18T23:48:34.774Z,19.98
2022-12-18T23:50:40.503Z,20.00
2022-12-18T23:52:45.513Z,19.10
2022-12-18T23:54:50.844Z,19.70
2022-12-18T23:56:55.833Z,19.73
2022-12-18T23:59:03.816Z,20.92
